createdAt,value
2017-12-22T00:01:16.175Z,6.28
2017-12-22T00:03:43.874Z,6.29
2017-12-22T00:06:11.504Z,6.28
2017-12-22T00:08:39.180Z,6.29
2017-12-22T00:11:06.796Z,6.27
2017-12-22T00:13:34.486Z,6.28
2017-12-22T00:16:02.116Z,6.28
2017-12-22T00:18:29.780Z,6.28
2017-12-22T00:20:57.452Z,6.29
2017-12-22T00:23:25.081Z,6.30
2017-12-22T00:25:52.765Z,6.32
2017-12-22T00:28:20.412Z,6.33
2017-12-22T00:30:48.088Z,6.34
2017-12-22T00:33:15.707Z,6.35
2017-12-22T00:35:43.450Z,6.36
2017-12-22T00:38:11.073Z,6.36
2017-12-22T00:40:38.747Z,6.36
2017-12-22T00:43:06.368Z,6.37
2017-12-22T00:45:34.061Z,6.38
2017-12-22T00:48:01.693Z,6.39
2017-12-22T00:50:29.449Z,6.40
2017-12-22T00:52:57.078Z,6.40
2017-12-22T00:55:24.811Z,6.41
2017-12-22T00:57:52.502Z,6.42
2017-12-22T01:00:20.172Z,6.43
2017-12-22T01:02:47.876Z,6.44
2017-12-22T01:05:15.633Z,6.44
2017-12-22T01:07:43.327Z,6.45
2017-12-22T01:10:11.018Z,6.46
2017-12-22T01:12:38.756Z,6.47
2017-12-22T01:15:06.488Z,6.47
2017-12-22T01:17:39.937Z,6.48
2017-12-22T01:20:07.615Z,6.48
2017-12-22T01:22:35.342Z,6.49
2017-12-22T01:25:03.047Z,6.49
2017-12-22T01:27:30.771Z,6.50
2017-12-22T01:29:58.456Z,6.50
2017-12-22T01:32:26.200Z,6.50
2017-12-22T01:34:53.901Z,6.49
2017-12-22T01:37:21.638Z,6.48
2017-12-22T01:39:49.320Z,6.48
2017-12-22T01:42:17.085Z,6.47
2017-12-22T01:44:44.735Z,6.45
2017-12-22T01:47:12.471Z,6.43
2017-12-22T01:49:40.168Z,6.42
2017-12-22T01:52:07.904Z,6.44
2017-12-22T01:54:35.585Z,6.42
2017-12-22T01:57:03.225Z,6.42
2017-12-22T01:59:30.904Z,6.41
2017-12-22T02:01:58.638Z,6.43
2017-12-22T02:04:26.328Z,6.44
2017-12-22T02:06:53.955Z,6.44
2017-12-22T02:09:21.684Z,6.45
2017-12-22T02:11:49.380Z,6.45
2017-12-22T02:14:17.128Z,6.44
2017-12-22T02:16:44.814Z,6.45
2017-12-22T02:19:12.556Z,6.44
2017-12-22T02:21:40.191Z,6.44
2017-12-22T02:24:07.933Z,6.41
2017-12-22T02:26:35.642Z,6.43
2017-12-22T02:29:03.328Z,6.41
2017-12-22T02:31:30.946Z,6.40
2017-12-22T02:33:58.684Z,6.41
2017-12-22T02:36:26.363Z,6.43
2017-12-22T02:38:54.069Z,6.44
2017-12-22T02:41:21.768Z,6.46
2017-12-22T02:43:49.477Z,6.43
2017-12-22T02:46:17.213Z,6.45
2017-12-22T02:48:44.891Z,6.45
2017-12-22T02:51:12.573Z,6.46
2017-12-22T02:53:40.187Z,6.46
2017-12-22T02:56:07.923Z,6.46
2017-12-22T02:58:35.623Z,6.45
2017-12-22T03:01:03.468Z,6.44
2017-12-22T03:03:31.163Z,6.46
2017-12-22T03:05:58.911Z,6.47
2017-12-22T03:08:26.603Z,6.50
2017-12-22T03:10:54.332Z,6.49
2017-12-22T03:13:22.019Z,6.47
2017-12-22T03:15:49.766Z,6.48
2017-12-22T03:18:17.447Z,6.51
2017-12-22T03:20:45.126Z,6.52
2017-12-22T03:23:12.820Z,6.52
2017-12-22T03:25:40.560Z,6.50
2017-12-22T03:28:08.246Z,6.49
2017-12-22T03:30:36.040Z,6.48
2017-12-22T03:33:03.786Z,6.46
2017-12-22T03:35:31.480Z,6.45
2017-12-22T03:37:59.212Z,6.44
2017-12-22T03:40:26.843Z,6.45
2017-12-22T03:42:54.587Z,6.45
2017-12-22T03:45:22.274Z,6.47
2017-12-22T03:47:50.021Z,6.48
2017-12-22T03:50:17.722Z,6.46
2017-12-22T03:52:45.456Z,6.45
2017-12-22T03:55:13.147Z,6.47
2017-12-22T03:57:40.821Z,6.46
2017-12-22T04:00:08.451Z,6.49
2017-12-22T04:02:36.252Z,6.48
2017-12-22T04:05:03.958Z,6.51
2017-12-22T04:07:31.655Z,6.49
2017-12-22T04:09:59.340Z,6.52
2017-12-22T04:12:27.065Z,6.50
2017-12-22T04:14:54.804Z,6.49
2017-12-22T04:17:22.510Z,6.45
2017-12-22T04:19:50.248Z,6.42
2017-12-22T04:22:17.873Z,6.40
2017-12-22T04:24:45.611Z,6.38
2017-12-22T04:27:13.293Z,6.38
2017-12-22T04:29:41.045Z,6.38
2017-12-22T04:32:08.759Z,6.35
2017-12-22T04:34:36.450Z,6.35
2017-12-22T04:37:04.147Z,6.37
2017-12-22T04:39:31.776Z,6.35
2017-12-22T04:41:59.540Z,6.36
2017-12-22T04:44:27.161Z,6.35
2017-12-22T04:46:54.823Z,6.35
2017-12-22T04:49:22.470Z,6.37
2017-12-22T04:51:50.160Z,6.37
2017-12-22T04:54:17.849Z,6.39
2017-12-22T04:56:45.519Z,6.42
2017-12-22T04:59:13.262Z,6.42
2017-12-22T05:01:41.044Z,6.44
2017-12-22T05:04:08.738Z,6.45
2017-12-22T05:06:36.469Z,6.46
2017-12-22T05:09:04.107Z,6.47
2017-12-22T05:11:31.822Z,6.48
2017-12-22T05:13:59.510Z,6.50
2017-12-22T05:16:27.258Z,6.48
2017-12-22T05:18:54.918Z,6.48
2017-12-22T05:21:22.667Z,6.48
2017-12-22T05:23:50.384Z,6.49
2017-12-22T05:26:18.119Z,6.50
2017-12-22T05:28:45.823Z,6.51
2017-12-22T05:31:13.595Z,6.52
2017-12-22T05:33:41.217Z,6.54
2017-12-22T05:36:08.885Z,6.55
2017-12-22T05:38:36.565Z,6.56
2017-12-22T05:41:04.318Z,6.56
2017-12-22T05:43:31.931Z,6.56
2017-12-22T05:45:59.641Z,6.54
2017-12-22T05:48:27.392Z,6.53
2017-12-22T05:50:55.086Z,6.51
2017-12-22T05:53:22.823Z,6.50
2017-12-22T05:55:50.516Z,6.49
2017-12-22T05:58:18.255Z,6.49
2017-12-22T06:00:45.988Z,6.51
2017-12-22T06:03:13.726Z,6.49
2017-12-22T06:05:41.362Z,6.48
2017-12-22T06:08:09.103Z,6.47
2017-12-22T06:10:36.795Z,6.45
2017-12-22T06:13:04.558Z,6.43
2017-12-22T06:15:32.247Z,6.42
2017-12-22T06:17:59.911Z,6.43
2017-12-22T06:20:27.560Z,6.44
2017-12-22T06:22:55.319Z,6.42
2017-12-22T06:25:23.004Z,6.39
2017-12-22T06:27:50.689Z,6.38
2017-12-22T06:30:18.361Z,6.39
2017-12-22T06:32:46.077Z,6.38
2017-12-22T06:35:13.818Z,6.38
2017-12-22T06:37:41.452Z,6.38
2017-12-22T06:40:09.140Z,6.37
2017-12-22T06:42:36.823Z,6.37
2017-12-22T06:45:04.561Z,6.37
2017-12-22T06:47:32.258Z,6.39
2017-12-22T06:50:00.008Z,6.40
2017-12-22T06:52:27.716Z,6.43
2017-12-22T06:54:55.460Z,6.43
2017-12-22T06:57:23.152Z,6.41
2017-12-22T06:59:50.883Z,6.40
2017-12-22T07:02:18.627Z,6.38
2017-12-22T07:04:46.362Z,6.36
2017-12-22T07:07:14.072Z,6.36
2017-12-22T07:09:41.820Z,6.37
2017-12-22T07:12:09.447Z,6.35
2017-12-22T07:14:37.132Z,6.36
2017-12-22T07:17:04.861Z,6.35
2017-12-22T07:19:32.544Z,6.36
2017-12-22T07:22:00.284Z,6.38
2017-12-22T07:24:27.920Z,6.36
2017-12-22T07:26:55.681Z,6.38
2017-12-22T07:29:23.396Z,6.38
2017-12-22T07:31:51.140Z,6.37
2017-12-22T07:34:18.776Z,6.37
2017-12-22T07:36:46.526Z,6.36
2017-12-22T07:39:14.220Z,6.36
2017-12-22T07:41:42.005Z,6.37
2017-12-22T07:44:09.706Z,6.38
2017-12-22T07:46:37.463Z,6.38
2017-12-22T07:49:05.083Z,6.41
2017-12-22T07:51:32.752Z,6.41
2017-12-22T07:54:00.443Z,6.41
2017-12-22T07:56:28.154Z,6.41
2017-12-22T07:58:55.858Z,6.44
2017-12-22T08:01:23.755Z,6.45
2017-12-22T08:03:54.977Z,6.48
2017-12-22T08:06:22.822Z,6.50
2017-12-22T08:08:50.483Z,6.50
2017-12-22T08:11:18.164Z,6.51
2017-12-22T08:13:45.801Z,6.51
2017-12-22T08:16:13.459Z,6.52
2017-12-22T08:18:41.093Z,6.53
2017-12-22T08:21:08.787Z,6.56
2017-12-22T08:23:36.472Z,6.57
2017-12-22T08:26:04.248Z,6.59
2017-12-22T08:28:31.948Z,6.60
2017-12-22T08:30:59.676Z,6.63
2017-12-22T08:33:27.381Z,6.64
2017-12-22T08:35:55.129Z,6.64
2017-12-22T08:38:22.832Z,6.64
2017-12-22T08:40:50.567Z,6.62
2017-12-22T08:43:18.276Z,6.61
2017-12-22T08:45:46.034Z,6.63
2017-12-22T08:48:13.725Z,6.66
2017-12-22T08:50:41.457Z,6.68
2017-12-22T08:53:09.132Z,6.70
2017-12-22T08:55:36.862Z,6.70
2017-12-22T08:58:05.053Z,6.71
2017-12-22T09:00:33.133Z,6.69
2017-12-22T09:03:00.855Z,6.70
2017-12-22T09:05:28.481Z,6.71
2017-12-22T09:07:56.207Z,6.72
2017-12-22T09:10:23.872Z,6.72
2017-12-22T09:12:51.560Z,6.74
2017-12-22T09:15:19.280Z,6.79
2017-12-22T09:17:47.033Z,6.79
2017-12-22T09:20:14.655Z,6.82
2017-12-22T09:22:42.417Z,6.83
2017-12-22T09:25:10.071Z,6.80
2017-12-22T09:27:37.833Z,6.83
2017-12-22T09:30:05.571Z,6.81
2017-12-22T09:32:33.308Z,6.81
2017-12-22T09:35:01.008Z,6.80
2017-12-22T09:37:28.749Z,6.82
2017-12-22T09:39:56.445Z,6.81
2017-12-22T09:42:24.181Z,6.84
2017-12-22T09:44:52.398Z,6.94
2017-12-22T09:47:20.081Z,7.02
2017-12-22T09:49:47.864Z,7.06
2017-12-22T09:52:15.604Z,7.09
2017-12-22T09:54:43.292Z,7.12
2017-12-22T09:57:11.044Z,7.13
2017-12-22T09:59:38.760Z,7.13
2017-12-22T10:02:06.423Z,7.16
2017-12-22T10:04:34.144Z,7.14
2017-12-22T10:07:01.840Z,7.17
2017-12-22T10:09:29.742Z,7.25
2017-12-22T10:11:57.475Z,7.32
2017-12-22T10:14:25.165Z,7.36
2017-12-22T10:16:52.903Z,7.41
2017-12-22T10:19:20.601Z,7.43
2017-12-22T10:21:48.380Z,7.42
2017-12-22T10:24:16.097Z,7.42
2017-12-22T10:26:43.799Z,7.54
2017-12-22T10:29:11.488Z,7.68
2017-12-22T10:31:39.169Z,7.76
2017-12-22T10:34:06.792Z,7.85
2017-12-22T10:36:34.535Z,7.86
2017-12-22T10:39:02.262Z,7.85
2017-12-22T10:41:29.947Z,7.71
2017-12-22T10:43:57.634Z,7.73
2017-12-22T10:46:25.329Z,7.79
2017-12-22T10:48:53.090Z,7.82
2017-12-22T10:51:20.782Z,7.82
2017-12-22T10:53:48.459Z,7.84
2017-12-22T10:56:16.176Z,7.86
2017-12-22T10:58:43.907Z,7.84
2017-12-22T11:01:11.564Z,7.78
2017-12-22T11:03:39.309Z,7.67
2017-12-22T11:06:06.996Z,7.58
2017-12-22T11:08:34.660Z,7.59
2017-12-22T11:11:02.366Z,7.59
2017-12-22T11:13:30.103Z,7.65
2017-12-22T11:15:57.758Z,7.75
2017-12-22T11:18:25.435Z,7.77
2017-12-22T11:20:53.133Z,7.80
2017-12-22T11:23:20.812Z,7.80
2017-12-22T11:25:48.514Z,7.74
2017-12-22T11:28:16.254Z,7.69
2017-12-22T11:30:43.960Z,7.69
2017-12-22T11:33:14.984Z,7.67
2017-12-22T11:35:42.662Z,7.62
2017-12-22T11:38:10.399Z,7.60
2017-12-22T11:40:38.082Z,7.59
2017-12-22T11:43:05.827Z,7.51
2017-12-22T11:45:33.514Z,7.47
2017-12-22T11:48:01.199Z,7.47
2017-12-22T11:50:28.897Z,7.47
2017-12-22T11:52:56.681Z,7.50
2017-12-22T11:55:24.380Z,7.50
2017-12-22T11:57:52.147Z,7.49
2017-12-22T12:00:19.762Z,7.53
2017-12-22T12:02:47.444Z,7.57
2017-12-22T12:05:15.132Z,7.61
2017-12-22T12:07:42.867Z,7.64
2017-12-22T12:10:10.477Z,7.67
2017-12-22T12:12:38.145Z,7.63
2017-12-22T12:15:05.817Z,7.62
2017-12-22T12:17:33.536Z,7.62
2017-12-22T12:20:01.167Z,7.57
2017-12-22T12:22:28.907Z,7.51
2017-12-22T12:24:56.595Z,7.51
2017-12-22T12:27:24.289Z,7.48
2017-12-22T12:29:51.949Z,7.50
2017-12-22T12:32:19.641Z,7.48
2017-12-22T12:34:47.367Z,7.47
2017-12-22T12:37:15.070Z,7.47
2017-12-22T12:39:42.823Z,7.47
2017-12-22T12:42:10.497Z,7.47
2017-12-22T12:44:38.769Z,7.47
2017-12-22T12:47:06.456Z,7.50
2017-12-22T12:49:34.178Z,7.50
2017-12-22T12:52:01.852Z,7.46
2017-12-22T12:54:29.580Z,7.42
2017-12-22T12:56:57.212Z,7.42
2017-12-22T12:59:24.969Z,7.41
2017-12-22T13:01:52.694Z,7.43
2017-12-22T13:04:20.452Z,7.44
2017-12-22T13:06:48.157Z,7.41
2017-12-22T13:09:15.864Z,7.38
2017-12-22T13:11:43.541Z,7.36
2017-12-22T13:14:11.227Z,7.35
2017-12-22T13:16:38.889Z,7.30
2017-12-22T13:19:06.571Z,7.28
2017-12-22T13:21:34.277Z,7.25
2017-12-22T13:24:02.035Z,7.19
2017-12-22T13:26:29.727Z,7.13
2017-12-22T13:28:57.610Z,7.08
2017-12-22T13:31:25.325Z,7.06
2017-12-22T13:33:53.013Z,7.02
2017-12-22T13:36:20.695Z,6.99
2017-12-22T13:38:48.461Z,6.94
2017-12-22T13:41:16.150Z,6.89
2017-12-22T13:43:43.875Z,6.87
2017-12-22T13:46:11.534Z,6.84
2017-12-22T13:48:39.224Z,6.83
2017-12-22T13:51:06.921Z,6.85
2017-12-22T13:53:34.661Z,6.83
2017-12-22T13:56:02.359Z,6.81
2017-12-22T13:58:30.025Z,6.85
2017-12-22T14:00:57.653Z,6.84
2017-12-22T14:03:25.335Z,6.82
2017-12-22T14:05:53.071Z,6.79
2017-12-22T14:08:20.777Z,6.79
2017-12-22T14:10:48.535Z,6.71
2017-12-22T14:13:16.256Z,6.63
2017-12-22T14:15:43.985Z,6.60
2017-12-22T14:18:11.678Z,6.56
2017-12-22T14:20:39.434Z,6.54
2017-12-22T14:23:07.146Z,6.50
2017-12-22T14:25:34.817Z,6.50
2017-12-22T14:28:02.447Z,6.48
2017-12-22T14:30:30.194Z,6.46
2017-12-22T14:32:57.868Z,6.44
2017-12-22T14:35:25.541Z,6.38
2017-12-22T14:37:53.188Z,6.35
2017-12-22T14:40:20.922Z,6.27
2017-12-22T14:42:48.556Z,6.20
2017-12-22T14:45:16.237Z,6.12
2017-12-22T14:47:43.941Z,6.09
2017-12-22T14:50:11.612Z,6.01
2017-12-22T14:52:39.232Z,5.95
2017-12-22T14:55:06.902Z,5.91
2017-12-22T14:57:34.530Z,5.90
2017-12-22T15:00:02.201Z,5.84
2017-12-22T15:02:29.822Z,5.74
2017-12-22T15:04:57.518Z,5.66
2017-12-22T15:07:25.153Z,5.62
2017-12-22T15:09:52.817Z,5.59
2017-12-22T15:12:20.516Z,5.56
2017-12-22T15:14:48.209Z,5.52
2017-12-22T15:17:15.849Z,5.44
2017-12-22T15:19:43.512Z,5.39
2017-12-22T15:22:11.144Z,5.41
2017-12-22T15:24:38.844Z,5.35
2017-12-22T15:27:06.474Z,5.36
2017-12-22T15:29:34.177Z,5.30
2017-12-22T15:32:01.815Z,5.23
2017-12-22T15:34:29.488Z,5.17
2017-12-22T15:36:57.128Z,5.10
2017-12-22T15:39:24.869Z,5.05
2017-12-22T15:41:52.555Z,5.01
2017-12-22T15:44:20.245Z,4.97
2017-12-22T15:46:47.969Z,4.94
2017-12-22T15:49:15.694Z,4.93
2017-12-22T15:51:43.429Z,4.89
2017-12-22T15:54:11.052Z,4.84
2017-12-22T15:56:38.838Z,4.81
2017-12-22T15:59:06.530Z,4.73
2017-12-22T16:01:34.386Z,4.69
2017-12-22T16:04:02.090Z,4.67
2017-12-22T16:06:29.806Z,4.65
2017-12-22T16:08:57.440Z,4.63
2017-12-22T16:11:25.104Z,4.65
2017-12-22T16:13:52.748Z,4.68
2017-12-22T16:16:20.481Z,4.66
2017-12-22T16:18:48.121Z,4.58
2017-12-22T16:21:15.798Z,4.56
2017-12-22T16:23:43.432Z,4.53
2017-12-22T16:26:11.107Z,4.51
2017-12-22T16:28:38.766Z,4.50
2017-12-22T16:31:06.444Z,4.53
2017-12-22T16:33:34.076Z,4.58
2017-12-22T16:36:01.748Z,4.57
2017-12-22T16:38:31.326Z,4.56
2017-12-22T16:40:59.124Z,4.55
2017-12-22T16:43:27.170Z,4.48
2017-12-22T16:45:54.965Z,4.46
2017-12-22T16:48:22.656Z,4.41
2017-12-22T16:50:50.332Z,4.41
2017-12-22T16:53:18.006Z,4.45
2017-12-22T16:55:45.851Z,4.46
2017-12-22T16:58:13.464Z,4.42
2017-12-22T17:00:41.139Z,4.40
2017-12-22T17:03:08.767Z,4.39
2017-12-22T17:05:36.483Z,4.49
2017-12-22T17:08:04.119Z,4.51
2017-12-22T17:10:31.793Z,4.52
2017-12-22T17:12:59.444Z,4.49
2017-12-22T17:15:27.135Z,4.47
2017-12-22T17:17:54.811Z,4.46
2017-12-22T17:20:22.541Z,4.50
2017-12-22T17:22:50.188Z,4.52
2017-12-22T17:25:17.882Z,4.52
2017-12-22T17:27:45.679Z,4.58
2017-12-22T17:30:13.333Z,4.61
2017-12-22T17:32:41.135Z,4.72
2017-12-22T17:35:08.784Z,4.77
2017-12-22T17:37:36.457Z,4.78
2017-12-22T17:40:04.096Z,4.74
2017-12-22T17:42:31.783Z,4.74
2017-12-22T17:44:59.454Z,4.71
2017-12-22T17:47:27.172Z,4.67
2017-12-22T17:49:54.858Z,4.62
2017-12-22T17:52:22.557Z,4.56
2017-12-22T17:54:50.189Z,4.53
2017-12-22T17:57:18.007Z,4.54
2017-12-22T17:59:45.734Z,4.52
2017-12-22T18:02:13.449Z,4.54
2017-12-22T18:04:41.067Z,4.54
2017-12-22T18:07:08.850Z,4.56
2017-12-22T18:09:36.571Z,4.66
2017-12-22T18:12:04.329Z,4.63
2017-12-22T18:14:32.012Z,4.60
2017-12-22T18:16:59.740Z,4.57
2017-12-22T18:19:27.505Z,4.50
2017-12-22T18:21:55.307Z,4.45
2017-12-22T18:24:23.049Z,4.43
2017-12-22T18:26:50.829Z,4.40
2017-12-22T18:29:18.549Z,4.42
2017-12-22T18:31:46.281Z,4.50
2017-12-22T18:34:13.973Z,4.55
2017-12-22T18:36:41.780Z,4.62
2017-12-22T18:39:09.559Z,4.67
2017-12-22T18:41:37.370Z,4.70
2017-12-22T18:44:05.081Z,4.71
2017-12-22T18:46:32.824Z,4.71
2017-12-22T18:49:00.525Z,4.80
2017-12-22T18:51:28.272Z,4.93
2017-12-22T18:53:56.040Z,4.98
2017-12-22T18:56:23.769Z,5.06
2017-12-22T18:58:51.440Z,5.08
2017-12-22T19:01:19.179Z,5.07
2017-12-22T19:03:46.908Z,5.00
2017-12-22T19:06:14.608Z,4.96
2017-12-22T19:08:42.329Z,4.93
2017-12-22T19:11:10.023Z,4.85
2017-12-22T19:13:37.750Z,4.81
2017-12-22T19:16:05.444Z,4.80
2017-12-22T19:18:33.176Z,4.84
2017-12-22T19:21:00.823Z,4.88
2017-12-22T19:23:28.549Z,4.88
2017-12-22T19:25:56.255Z,4.92
2017-12-22T19:28:23.982Z,4.98
2017-12-22T19:30:51.617Z,5.03
2017-12-22T19:33:19.300Z,5.06
2017-12-22T19:35:46.980Z,5.11
2017-12-22T19:38:14.767Z,5.10
2017-12-22T19:40:42.494Z,5.08
2017-12-22T19:43:10.246Z,5.06
2017-12-22T19:45:38.004Z,5.04
2017-12-22T19:48:05.701Z,5.01
2017-12-22T19:50:33.392Z,5.04
2017-12-22T19:53:01.126Z,5.04
2017-12-22T19:55:28.856Z,5.09
2017-12-22T19:57:56.688Z,5.07
2017-12-22T20:00:24.366Z,5.04
2017-12-22T20:02:52.128Z,5.02
2017-12-22T20:05:19.810Z,4.98
2017-12-22T20:07:47.551Z,4.92
2017-12-22T20:10:15.230Z,4.90
2017-12-22T20:12:42.969Z,4.87
2017-12-22T20:15:10.727Z,4.82
2017-12-22T20:17:38.455Z,4.91
2017-12-22T20:20:06.158Z,4.94
2017-12-22T20:22:33.971Z,4.95
2017-12-22T20:25:01.671Z,4.95
2017-12-22T20:27:29.489Z,4.96
2017-12-22T20:29:57.173Z,4.99
2017-12-22T20:32:24.955Z,4.97
2017-12-22T20:34:52.636Z,4.98
2017-12-22T20:37:20.354Z,4.92
2017-12-22T20:39:48.041Z,4.88
2017-12-22T20:42:15.779Z,4.89
2017-12-22T20:44:43.518Z,4.89
2017-12-22T20:47:11.237Z,4.91
2017-12-22T20:49:38.959Z,4.93
2017-12-22T20:52:06.646Z,4.94
2017-12-22T20:54:34.443Z,4.92
2017-12-22T20:57:02.191Z,4.94
2017-12-22T20:59:30.001Z,4.93
2017-12-22T21:01:57.807Z,4.97
2017-12-22T21:04:25.541Z,4.97
2017-12-22T21:06:53.221Z,4.99
2017-12-22T21:09:20.938Z,4.99
2017-12-22T21:11:48.613Z,4.98
2017-12-22T21:14:16.337Z,5.01
2017-12-22T21:16:44.111Z,5.05
2017-12-22T21:19:11.849Z,5.08
2017-12-22T21:21:39.604Z,5.09
2017-12-22T21:24:07.346Z,5.06
2017-12-22T21:26:35.099Z,5.07
2017-12-22T21:29:02.792Z,5.10
2017-12-22T21:31:30.535Z,5.14
2017-12-22T21:33:58.305Z,5.12
2017-12-22T21:36:26.027Z,5.09
2017-12-22T21:38:53.811Z,5.04
2017-12-22T21:41:21.500Z,5.02
2017-12-22T21:43:49.201Z,5.01
2017-12-22T21:46:16.893Z,5.00
2017-12-22T21:48:44.651Z,4.97
2017-12-22T21:51:12.345Z,4.95
2017-12-22T21:53:40.070Z,4.95
2017-12-22T21:56:07.730Z,4.94
2017-12-22T21:58:35.489Z,4.93
2017-12-22T22:01:03.164Z,4.92
2017-12-22T22:03:31.046Z,4.97
2017-12-22T22:05:58.805Z,4.98
2017-12-22T22:08:26.526Z,5.03
2017-12-22T22:10:54.218Z,5.06
2017-12-22T22:13:21.950Z,5.06
2017-12-22T22:15:49.627Z,5.04
2017-12-22T22:18:17.352Z,5.03
2017-12-22T22:20:45.023Z,5.01
2017-12-22T22:23:12.758Z,4.99
2017-12-22T22:25:40.510Z,4.97
2017-12-22T22:28:08.184Z,5.00
2017-12-22T22:30:35.911Z,5.03
2017-12-22T22:33:03.650Z,5.06
2017-12-22T22:35:31.361Z,5.05
2017-12-22T22:37:59.035Z,5.05
2017-12-22T22:40:26.823Z,5.04
2017-12-22T22:42:54.520Z,5.07
2017-12-22T22:45:22.284Z,5.08
2017-12-22T22:47:50.056Z,5.09
2017-12-22T22:50:17.825Z,5.11
2017-12-22T22:52:45.811Z,5.13
2017-12-22T22:55:13.596Z,5.16
2017-12-22T22:57:41.336Z,5.19
2017-12-22T23:00:09.066Z,5.21
2017-12-22T23:02:36.796Z,5.24
2017-12-22T23:05:04.459Z,5.24
2017-12-22T23:07:32.145Z,5.27
2017-12-22T23:10:00.694Z,5.30
2017-12-22T23:12:28.316Z,5.34
2017-12-22T23:14:56.044Z,5.38
2017-12-22T23:17:23.719Z,5.37
2017-12-22T23:19:51.391Z,5.38
2017-12-22T23:22:19.061Z,5.38
2017-12-22T23:24:46.903Z,5.41
2017-12-22T23:27:14.589Z,5.43
2017-12-22T23:29:42.388Z,5.43
2017-12-22T23:32:10.064Z,5.43
2017-12-22T23:34:37.780Z,5.44
2017-12-22T23:37:05.465Z,5.46
2017-12-22T23:39:33.267Z,5.47
2017-12-22T23:42:00.944Z,5.49
2017-12-22T23:44:28.688Z,5.50
2017-12-22T23:46:56.446Z,5.52
2017-12-22T23:49:24.188Z,5.54
2017-12-22T23:51:51.835Z,5.56
2017-12-22T23:54:19.504Z,5.58
2017-12-22T23:56:47.191Z,5.57
2017-12-22T23:59:14.979Z,5.57
